ENSG/SOG METAR and TAF weather

Enter ICAO airport designator
Station Type Date Time Source
ENSG METAR 2022/06/25 11:50 UTC NOAA

ENSG 251150Z VRB02KT 9999 FEW050TCU BKN060 23/12 Q1011 RMK WIND 3806FT 15018KT


Station Type Date Time Source
ENSG Decoded METAR 2022/06/25 11:50 UTC NOAA

Sogndal / Haukasen, Norway (ENSG) 61-09N 007-08E 497M
Jun 25, 2022 - 07:50 AM EDT / 2022.06.25 1150 UTC
Wind: Variable at 2 MPH (2 KT):0
Visibility: greater than 7 mile(s):0
Sky conditions: mostly cloudy
Weather: Towering cumulus clouds observed
Temperature: 73 F (23 C)
Dew Point: 53 F (12 C)
Relative Humidity: 49%
Pressure (altimeter): 29.85 in. Hg (1011 hPa)
ob: ENSG 251150Z VRB02KT 9999 FEW050TCU BKN060 23/12 Q1011 RMK WIND 3806FT 15018KT
cycle: 12

Station Type Date Time Source
ENSG TAF UTC NOAA

Error!

Example: see airport list